sensor_id;sensor_type;location;lat;lon;timestamp;P1;durP1;ratioP1;P2;durP2;ratioP2
26598;SDS011;14240;51.064;16.612;2023-09-07T00:01:43;8.68;;;6.43;;
26598;SDS011;14240;51.064;16.612;2023-09-07T00:04:09;9.55;;;5.80;;
26598;SDS011;14240;51.064;16.612;2023-09-07T00:06:35;9.25;;;5.63;;
26598;SDS011;14240;51.064;16.612;2023-09-07T00:09:02;9.85;;;6.32;;
26598;SDS011;14240;51.064;16.612;2023-09-07T00:11:28;10.85;;;6.38;;
26598;SDS011;14240;51.064;16.612;2023-09-07T00:13:54;11.27;;;6.30;;
26598;SDS011;14240;51.064;16.612;2023-09-07T00:16:22;8.32;;;6.75;;
26598;SDS011;14240;51.064;16.612;2023-09-07T00:18:48;13.30;;;6.93;;
26598;SDS011;14240;51.064;16.612;2023-09-07T00:21:14;13.27;;;7.25;;
26598;SDS011;14240;51.064;16.612;2023-09-07T00:23:40;11.65;;;7.25;;
26598;SDS011;14240;51.064;16.612;2023-09-07T00:26:06;15.85;;;7.22;;
26598;SDS011;14240;51.064;16.612;2023-09-07T00:28:31;9.60;;;6.35;;
26598;SDS011;14240;51.064;16.612;2023-09-07T00:30:57;7.88;;;6.53;;
26598;SDS011;14240;51.064;16.612;2023-09-07T00:33:23;11.98;;;7.70;;
26598;SDS011;14240;51.064;16.612;2023-09-07T00:35:48;11.35;;;6.57;;
26598;SDS011;14240;51.064;16.612;2023-09-07T00:38:14;12.45;;;7.20;;
26598;SDS011;14240;51.064;16.612;2023-09-07T00:40:42;13.48;;;6.88;;
26598;SDS011;14240;51.064;16.612;2023-09-07T00:43:10;14.68;;;7.68;;
26598;SDS011;14240;51.064;16.612;2023-09-07T00:45:36;10.73;;;7.22;;
26598;SDS011;14240;51.064;16.612;2023-09-07T00:48:03;12.43;;;7.57;;
26598;SDS011;14240;51.064;16.612;2023-09-07T00:50:29;11.13;;;7.72;;
26598;SDS011;14240;51.064;16.612;2023-09-07T00:52:55;10.75;;;8.13;;
26598;SDS011;14240;51.064;16.612;2023-09-07T00:55:20;13.90;;;7.95;;
26598;SDS011;14240;51.064;16.612;2023-09-07T00:57:47;13.73;;;7.70;;
26598;SDS011;14240;51.064;16.612;2023-09-07T01:00:13;9.95;;;5.80;;
26598;SDS011;14240;51.064;16.612;2023-09-07T01:02:39;12.82;;;7.13;;
26598;SDS011;14240;51.064;16.612;2023-09-07T01:05:05;15.98;;;8.13;;
26598;SDS011;14240;51.064;16.612;2023-09-07T01:10:01;10.23;;;6.72;;
26598;SDS011;14240;51.064;16.612;2023-09-07T01:12:27;11.27;;;6.30;;
26598;SDS011;14240;51.064;16.612;2023-09-07T01:14:53;13.82;;;8.25;;
26598;SDS011;14240;51.064;16.612;2023-09-07T01:17:19;12.48;;;7.47;;
26598;SDS011;14240;51.064;16.612;2023-09-07T01:19:49;15.00;;;7.18;;
26598;SDS011;14240;51.064;16.612;2023-09-07T01:22:20;10.52;;;5.95;;
26598;SDS011;14240;51.064;16.612;2023-09-07T01:24:50;11.68;;;6.95;;
26598;SDS011;14240;51.064;16.612;2023-09-07T01:29:43;16.95;;;7.32;;
26598;SDS011;14240;51.064;16.612;2023-09-07T01:32:09;9.77;;;6.40;;
26598;SDS011;14240;51.064;16.612;2023-09-07T01:34:35;16.67;;;7.32;;
26598;SDS011;14240;51.064;16.612;2023-09-07T01:37:01;13.43;;;7.07;;
26598;SDS011;14240;51.064;16.612;2023-09-07T01:39:27;13.90;;;6.82;;
26598;SDS011;14240;51.064;16.612;2023-09-07T01:41:53;15.55;;;8.23;;
26598;SDS011;14240;51.064;16.612;2023-09-07T01:44:19;22.30;;;7.32;;
26598;SDS011;14240;51.064;16.612;2023-09-07T01:46:44;23.88;;;7.50;;
26598;SDS011;14240;51.064;16.612;2023-09-07T01:49:10;21.35;;;8.18;;
26598;SDS011;14240;51.064;16.612;2023-09-07T01:51:36;19.60;;;8.07;;
26598;SDS011;14240;51.064;16.612;2023-09-07T01:54:02;15.30;;;7.95;;
26598;SDS011;14240;51.064;16.612;2023-09-07T01:56:27;10.55;;;7.70;;
26598;SDS011;14240;51.064;16.612;2023-09-07T01:58:53;13.02;;;7.85;;
26598;SDS011;14240;51.064;16.612;2023-09-07T02:01:29;12.52;;;7.28;;
26598;SDS011;14240;51.064;16.612;2023-09-07T02:03:56;19.48;;;7.93;;
26598;SDS011;14240;51.064;16.612;2023-09-07T02:06:22;14.07;;;7.43;;
26598;SDS011;14240;51.064;16.612;2023-09-07T02:08:48;14.95;;;7.65;;
26598;SDS011;14240;51.064;16.612;2023-09-07T02:11:14;16.13;;;7.93;;
26598;SDS011;14240;51.064;16.612;2023-09-07T02:13:43;21.67;;;7.32;;
26598;SDS011;14240;51.064;16.612;2023-09-07T02:16:11;18.63;;;8.90;;
26598;SDS011;14240;51.064;16.612;2023-09-07T02:18:36;21.02;;;8.70;;
26598;SDS011;14240;51.064;16.612;2023-09-07T02:21:08;17.25;;;8.43;;
26598;SDS011;14240;51.064;16.612;2023-09-07T02:23:34;10.95;;;7.00;;
26598;SDS011;14240;51.064;16.612;2023-09-07T02:26:02;17.45;;;8.43;;
26598;SDS011;14240;51.064;16.612;2023-09-07T02:28:29;14.70;;;7.45;;
26598;SDS011;14240;51.064;16.612;2023-09-07T02:30:54;14.57;;;8.50;;
26598;SDS011;14240;51.064;16.612;2023-09-07T02:33:27;18.48;;;8.25;;
26598;SDS011;14240;51.064;16.612;2023-09-07T02:35:53;15.18;;;7.68;;
26598;SDS011;14240;51.064;16.612;2023-09-07T02:38:19;17.83;;;6.85;;
26598;SDS011;14240;51.064;16.612;2023-09-07T02:40:44;12.13;;;7.45;;
26598;SDS011;14240;51.064;16.612;2023-09-07T02:43:10;18.92;;;7.60;;
26598;SDS011;14240;51.064;16.612;2023-09-07T02:45:36;12.68;;;7.88;;
26598;SDS011;14240;51.064;16.612;2023-09-07T02:48:03;12.98;;;7.43;;
26598;SDS011;14240;51.064;16.612;2023-09-07T02:50:30;13.02;;;7.65;;
26598;SDS011;14240;51.064;16.612;2023-09-07T02:52:57;13.95;;;7.78;;
26598;SDS011;14240;51.064;16.612;2023-09-07T02:55:23;14.38;;;7.50;;
26598;SDS011;14240;51.064;16.612;2023-09-07T02:57:48;15.75;;;6.97;;
26598;SDS011;14240;51.064;16.612;2023-09-07T03:00:14;14.32;;;8.18;;
26598;SDS011;14240;51.064;16.612;2023-09-07T03:02:42;16.23;;;8.00;;
26598;SDS011;14240;51.064;16.612;2023-09-07T03:05:11;12.48;;;7.75;;
26598;SDS011;14240;51.064;16.612;2023-09-07T03:07:36;9.75;;;6.28;;
26598;SDS011;14240;51.064;16.612;2023-09-07T03:10:04;8.80;;;6.05;;
26598;SDS011;14240;51.064;16.612;2023-09-07T03:12:30;13.10;;;7.35;;
26598;SDS011;14240;51.064;16.612;2023-09-07T03:14:56;14.32;;;6.03;;
26598;SDS011;14240;51.064;16.612;2023-09-07T03:17:21;15.05;;;6.13;;
26598;SDS011;14240;51.064;16.612;2023-09-07T03:19:47;15.77;;;7.07;;
26598;SDS011;14240;51.064;16.612;2023-09-07T03:22:13;17.23;;;7.90;;
26598;SDS011;14240;51.064;16.612;2023-09-07T03:24:39;15.07;;;7.75;;
26598;SDS011;14240;51.064;16.612;2023-09-07T03:27:05;12.10;;;7.32;;
26598;SDS011;14240;51.064;16.612;2023-09-07T03:29:31;8.90;;;6.80;;
26598;SDS011;14240;51.064;16.612;2023-09-07T03:32:00;10.98;;;7.32;;
26598;SDS011;14240;51.064;16.612;2023-09-07T03:34:26;16.55;;;6.88;;
26598;SDS011;14240;51.064;16.612;2023-09-07T03:36:52;10.65;;;6.18;;
26598;SDS011;14240;51.064;16.612;2023-09-07T03:39:17;8.20;;;5.88;;
26598;SDS011;14240;51.064;16.612;2023-09-07T03:41:52;9.00;;;5.45;;
26598;SDS011;14240;51.064;16.612;2023-09-07T03:44:18;9.70;;;6.28;;
26598;SDS011;14240;51.064;16.612;2023-09-07T03:46:43;10.75;;;6.25;;
26598;SDS011;14240;51.064;16.612;2023-09-07T03:49:09;8.82;;;5.53;;
26598;SDS011;14240;51.064;16.612;2023-09-07T03:51:35;84.95;;;10.10;;
26598;SDS011;14240;51.064;16.612;2023-09-07T03:54:01;83.53;;;8.98;;
26598;SDS011;14240;51.064;16.612;2023-09-07T03:56:26;48.72;;;9.70;;
26598;SDS011;14240;51.064;16.612;2023-09-07T03:58:52;10.25;;;6.82;;
26598;SDS011;14240;51.064;16.612;2023-09-07T04:01:18;11.95;;;6.47;;
26598;SDS011;14240;51.064;16.612;2023-09-07T04:03:43;12.68;;;6.82;;
26598;SDS011;14240;51.064;16.612;2023-09-07T04:06:09;9.55;;;6.88;;
26598;SDS011;14240;51.064;16.612;2023-09-07T04:08:35;12.30;;;7.35;;
26598;SDS011;14240;51.064;16.612;2023-09-07T04:11:05;12.15;;;6.82;;
26598;SDS011;14240;51.064;16.612;2023-09-07T04:13:31;9.13;;;6.78;;
26598;SDS011;14240;51.064;16.612;2023-09-07T04:15:57;13.18;;;7.25;;
26598;SDS011;14240;51.064;16.612;2023-09-07T04:18:23;16.08;;;7.28;;
26598;SDS011;14240;51.064;16.612;2023-09-07T04:20:49;10.52;;;6.95;;
26598;SDS011;14240;51.064;16.612;2023-09-07T04:23:15;13.43;;;7.10;;
26598;SDS011;14240;51.064;16.612;2023-09-07T04:25:41;10.57;;;6.45;;
26598;SDS011;14240;51.064;16.612;2023-09-07T04:28:06;20.92;;;7.13;;
26598;SDS011;14240;51.064;16.612;2023-09-07T04:30:33;15.40;;;7.63;;
26598;SDS011;14240;51.064;16.612;2023-09-07T04:33:06;11.95;;;7.75;;
26598;SDS011;14240;51.064;16.612;2023-09-07T04:35:32;15.80;;;8.02;;
26598;SDS011;14240;51.064;16.612;2023-09-07T04:37:58;13.98;;;8.57;;
26598;SDS011;14240;51.064;16.612;2023-09-07T04:40:24;13.68;;;8.13;;
26598;SDS011;14240;51.064;16.612;2023-09-07T04:42:50;11.30;;;8.40;;
26598;SDS011;14240;51.064;16.612;2023-09-07T04:45:16;13.38;;;8.13;;
26598;SDS011;14240;51.064;16.612;2023-09-07T04:47:42;12.02;;;7.97;;
26598;SDS011;14240;51.064;16.612;2023-09-07T04:50:08;15.13;;;8.35;;
26598;SDS011;14240;51.064;16.612;2023-09-07T04:52:35;23.77;;;6.60;;
26598;SDS011;14240;51.064;16.612;2023-09-07T04:55:01;14.88;;;7.60;;
26598;SDS011;14240;51.064;16.612;2023-09-07T04:57:26;16.63;;;7.97;;
26598;SDS011;14240;51.064;16.612;2023-09-07T04:59:52;16.25;;;8.75;;
26598;SDS011;14240;51.064;16.612;2023-09-07T05:02:18;13.45;;;8.07;;
26598;SDS011;14240;51.064;16.612;2023-09-07T05:04:44;18.98;;;10.77;;
26598;SDS011;14240;51.064;16.612;2023-09-07T05:07:10;19.95;;;11.45;;
26598;SDS011;14240;51.064;16.612;2023-09-07T05:09:35;16.23;;;10.50;;
26598;SDS011;14240;51.064;16.612;2023-09-07T05:12:01;21.00;;;13.10;;
26598;SDS011;14240;51.064;16.612;2023-09-07T05:14:27;20.45;;;13.13;;
26598;SDS011;14240;51.064;16.612;2023-09-07T05:16:54;26.92;;;13.48;;
26598;SDS011;14240;51.064;16.612;2023-09-07T05:19:21;26.25;;;13.75;;
26598;SDS011;14240;51.064;16.612;2023-09-07T05:21:47;23.80;;;13.68;;
26598;SDS011;14240;51.064;16.612;2023-09-07T05:24:13;21.23;;;12.23;;
26598;SDS011;14240;51.064;16.612;2023-09-07T05:26:41;20.88;;;11.77;;
26598;SDS011;14240;51.064;16.612;2023-09-07T05:29:08;22.75;;;12.70;;
26598;SDS011;14240;51.064;16.612;2023-09-07T05:31:33;21.30;;;12.00;;
26598;SDS011;14240;51.064;16.612;2023-09-07T05:33:59;22.85;;;12.98;;
26598;SDS011;14240;51.064;16.612;2023-09-07T05:36:25;26.50;;;15.50;;
26598;SDS011;14240;51.064;16.612;2023-09-07T05:38:52;25.95;;;14.63;;
26598;SDS011;14240;51.064;16.612;2023-09-07T05:41:17;22.88;;;16.70;;
26598;SDS011;14240;51.064;16.612;2023-09-07T05:43:43;26.15;;;16.80;;
26598;SDS011;14240;51.064;16.612;2023-09-07T05:46:09;26.58;;;15.80;;
26598;SDS011;14240;51.064;16.612;2023-09-07T05:48:35;18.45;;;13.95;;
26598;SDS011;14240;51.064;16.612;2023-09-07T05:51:00;25.52;;;13.95;;
26598;SDS011;14240;51.064;16.612;2023-09-07T05:53:26;17.95;;;13.75;;
26598;SDS011;14240;51.064;16.612;2023-09-07T05:55:52;19.75;;;13.70;;
26598;SDS011;14240;51.064;16.612;2023-09-07T05:58:17;22.58;;;14.38;;
26598;SDS011;14240;51.064;16.612;2023-09-07T06:00:44;17.02;;;12.55;;
26598;SDS011;14240;51.064;16.612;2023-09-07T06:03:09;21.38;;;14.48;;
26598;SDS011;14240;51.064;16.612;2023-09-07T06:05:36;20.85;;;13.93;;
26598;SDS011;14240;51.064;16.612;2023-09-07T06:08:03;22.13;;;11.07;;
26598;SDS011;14240;51.064;16.612;2023-09-07T06:10:31;14.75;;;7.80;;
26598;SDS011;14240;51.064;16.612;2023-09-07T06:12:57;20.83;;;9.80;;
26598;SDS011;14240;51.064;16.612;2023-09-07T06:15:23;21.85;;;10.88;;
26598;SDS011;14240;51.064;16.612;2023-09-07T06:17:48;17.58;;;9.85;;
26598;SDS011;14240;51.064;16.612;2023-09-07T06:20:15;21.88;;;11.93;;
26598;SDS011;14240;51.064;16.612;2023-09-07T06:22:41;18.40;;;10.18;;
26598;SDS011;14240;51.064;16.612;2023-09-07T06:25:06;17.60;;;9.55;;
26598;SDS011;14240;51.064;16.612;2023-09-07T06:27:32;23.27;;;9.95;;
26598;SDS011;14240;51.064;16.612;2023-09-07T06:29:58;25.70;;;12.05;;
26598;SDS011;14240;51.064;16.612;2023-09-07T06:32:24;20.73;;;11.35;;
26598;SDS011;14240;51.064;16.612;2023-09-07T06:34:49;18.23;;;11.73;;
26598;SDS011;14240;51.064;16.612;2023-09-07T06:37:15;26.73;;;12.63;;
26598;SDS011;14240;51.064;16.612;2023-09-07T06:39:41;29.83;;;12.10;;
26598;SDS011;14240;51.064;16.612;2023-09-07T06:42:10;26.35;;;11.75;;
26598;SDS011;14240;51.064;16.612;2023-09-07T06:44:36;24.13;;;10.68;;
26598;SDS011;14240;51.064;16.612;2023-09-07T06:47:02;26.92;;;12.05;;
26598;SDS011;14240;51.064;16.612;2023-09-07T06:49:27;18.15;;;10.13;;
26598;SDS011;14240;51.064;16.612;2023-09-07T06:51:54;23.30;;;11.68;;
26598;SDS011;14240;51.064;16.612;2023-09-07T06:54:21;17.33;;;10.23;;
26598;SDS011;14240;51.064;16.612;2023-09-07T06:56:47;18.52;;;8.73;;
26598;SDS011;14240;51.064;16.612;2023-09-07T06:59:12;17.52;;;8.68;;
26598;SDS011;14240;51.064;16.612;2023-09-07T07:01:39;17.05;;;9.10;;
26598;SDS011;14240;51.064;16.612;2023-09-07T07:04:04;20.48;;;10.35;;
26598;SDS011;14240;51.064;16.612;2023-09-07T07:06:30;19.75;;;10.75;;
26598;SDS011;14240;51.064;16.612;2023-09-07T07:08:56;19.85;;;10.68;;
26598;SDS011;14240;51.064;16.612;2023-09-07T07:11:21;20.88;;;10.00;;
26598;SDS011;14240;51.064;16.612;2023-09-07T07:13:47;13.70;;;8.30;;
26598;SDS011;14240;51.064;16.612;2023-09-07T07:16:13;18.00;;;8.95;;
26598;SDS011;14240;51.064;16.612;2023-09-07T07:18:39;19.85;;;10.00;;
26598;SDS011;14240;51.064;16.612;2023-09-07T07:21:04;19.92;;;12.00;;
26598;SDS011;14240;51.064;16.612;2023-09-07T07:23:30;20.75;;;9.95;;
26598;SDS011;14240;51.064;16.612;2023-09-07T07:25:56;34.97;;;15.15;;
26598;SDS011;14240;51.064;16.612;2023-09-07T07:28:22;24.42;;;11.05;;
26598;SDS011;14240;51.064;16.612;2023-09-07T07:30:47;22.77;;;10.00;;
26598;SDS011;14240;51.064;16.612;2023-09-07T07:33:13;17.90;;;9.48;;
26598;SDS011;14240;51.064;16.612;2023-09-07T07:35:39;17.23;;;9.68;;
26598;SDS011;14240;51.064;16.612;2023-09-07T07:38:05;23.67;;;13.90;;
26598;SDS011;14240;51.064;16.612;2023-09-07T07:40:32;28.17;;;12.07;;
26598;SDS011;14240;51.064;16.612;2023-09-07T07:42:58;18.48;;;10.70;;
26598;SDS011;14240;51.064;16.612;2023-09-07T07:45:24;25.50;;;13.40;;
26598;SDS011;14240;51.064;16.612;2023-09-07T07:47:50;19.55;;;10.35;;
26598;SDS011;14240;51.064;16.612;2023-09-07T07:50:17;20.10;;;11.30;;
26598;SDS011;14240;51.064;16.612;2023-09-07T07:52:43;13.98;;;9.82;;
26598;SDS011;14240;51.064;16.612;2023-09-07T07:55:10;14.52;;;8.90;;
26598;SDS011;14240;51.064;16.612;2023-09-07T07:57:36;17.17;;;10.05;;
26598;SDS011;14240;51.064;16.612;2023-09-07T08:00:02;14.57;;;8.32;;
26598;SDS011;14240;51.064;16.612;2023-09-07T08:02:34;14.27;;;8.60;;
26598;SDS011;14240;51.064;16.612;2023-09-07T08:04:59;15.13;;;7.55;;
26598;SDS011;14240;51.064;16.612;2023-09-07T08:07:25;14.95;;;7.32;;
26598;SDS011;14240;51.064;16.612;2023-09-07T08:09:51;12.70;;;7.63;;
26598;SDS011;14240;51.064;16.612;2023-09-07T08:12:17;16.67;;;8.02;;
26598;SDS011;14240;51.064;16.612;2023-09-07T08:14:43;8.98;;;4.95;;
26598;SDS011;14240;51.064;16.612;2023-09-07T08:17:09;15.80;;;7.45;;
26598;SDS011;14240;51.064;16.612;2023-09-07T08:19:34;15.40;;;6.35;;
26598;SDS011;14240;51.064;16.612;2023-09-07T08:22:01;11.35;;;6.70;;
26598;SDS011;14240;51.064;16.612;2023-09-07T08:24:28;9.77;;;6.13;;
26598;SDS011;14240;51.064;16.612;2023-09-07T08:26:55;16.75;;;7.35;;
26598;SDS011;14240;51.064;16.612;2023-09-07T08:29:22;10.10;;;5.57;;
26598;SDS011;14240;51.064;16.612;2023-09-07T08:31:55;13.05;;;6.25;;
26598;SDS011;14240;51.064;16.612;2023-09-07T08:34:22;10.68;;;6.70;;
26598;SDS011;14240;51.064;16.612;2023-09-07T08:36:48;13.13;;;5.90;;
26598;SDS011;14240;51.064;16.612;2023-09-07T08:39:15;8.20;;;5.20;;
26598;SDS011;14240;51.064;16.612;2023-09-07T08:41:42;12.43;;;6.03;;
26598;SDS011;14240;51.064;16.612;2023-09-07T08:44:27;11.52;;;5.55;;
26598;SDS011;14240;51.064;16.612;2023-09-07T08:46:55;13.90;;;6.22;;
26598;SDS011;14240;51.064;16.612;2023-09-07T08:49:20;14.60;;;6.47;;
26598;SDS011;14240;51.064;16.612;2023-09-07T08:51:48;9.80;;;5.78;;
26598;SDS011;14240;51.064;16.612;2023-09-07T08:54:14;9.57;;;5.22;;
26598;SDS011;14240;51.064;16.612;2023-09-07T08:56:40;12.57;;;6.70;;
26598;SDS011;14240;51.064;16.612;2023-09-07T08:59:06;10.70;;;6.40;;
26598;SDS011;14240;51.064;16.612;2023-09-07T09:01:32;8.85;;;5.65;;
26598;SDS011;14240;51.064;16.612;2023-09-07T09:03:58;12.90;;;6.32;;
26598;SDS011;14240;51.064;16.612;2023-09-07T09:06:24;6.30;;;4.32;;
26598;SDS011;14240;51.064;16.612;2023-09-07T09:08:51;7.85;;;5.85;;
26598;SDS011;14240;51.064;16.612;2023-09-07T09:11:19;8.75;;;4.28;;
26598;SDS011;14240;51.064;16.612;2023-09-07T09:13:45;6.68;;;4.72;;
26598;SDS011;14240;51.064;16.612;2023-09-07T09:16:12;7.03;;;3.90;;
26598;SDS011;14240;51.064;16.612;2023-09-07T09:18:47;6.40;;;4.03;;
26598;SDS011;14240;51.064;16.612;2023-09-07T09:21:17;12.07;;;4.95;;
26598;SDS011;14240;51.064;16.612;2023-09-07T09:23:46;10.18;;;5.05;;
26598;SDS011;14240;51.064;16.612;2023-09-07T09:26:13;9.23;;;4.93;;
26598;SDS011;14240;51.064;16.612;2023-09-07T09:28:39;11.45;;;5.22;;
26598;SDS011;14240;51.064;16.612;2023-09-07T09:31:04;8.15;;;4.70;;
26598;SDS011;14240;51.064;16.612;2023-09-07T09:33:34;7.80;;;5.05;;
26598;SDS011;14240;51.064;16.612;2023-09-07T09:36:00;8.65;;;4.38;;
26598;SDS011;14240;51.064;16.612;2023-09-07T09:38:27;8.27;;;4.77;;
26598;SDS011;14240;51.064;16.612;2023-09-07T09:40:54;10.82;;;4.30;;
26598;SDS011;14240;51.064;16.612;2023-09-07T09:43:20;6.78;;;3.83;;
26598;SDS011;14240;51.064;16.612;2023-09-07T09:45:46;9.15;;;3.72;;
26598;SDS011;14240;51.064;16.612;2023-09-07T09:48:15;8.55;;;4.70;;
26598;SDS011;14240;51.064;16.612;2023-09-07T09:50:43;10.80;;;3.92;;
26598;SDS011;14240;51.064;16.612;2023-09-07T09:53:10;6.53;;;4.28;;
26598;SDS011;14240;51.064;16.612;2023-09-07T09:55:42;8.00;;;4.72;;
26598;SDS011;14240;51.064;16.612;2023-09-07T09:58:08;10.32;;;5.13;;
26598;SDS011;14240;51.064;16.612;2023-09-07T10:00:33;9.40;;;4.72;;
26598;SDS011;14240;51.064;16.612;2023-09-07T10:05:44;10.90;;;4.93;;
26598;SDS011;14240;51.064;16.612;2023-09-07T10:08:14;11.27;;;6.05;;
26598;SDS011;14240;51.064;16.612;2023-09-07T10:10:42;7.68;;;4.55;;
26598;SDS011;14240;51.064;16.612;2023-09-07T10:13:09;6.72;;;4.20;;
26598;SDS011;14240;51.064;16.612;2023-09-07T10:15:38;7.80;;;4.70;;
26598;SDS011;14240;51.064;16.612;2023-09-07T10:20:55;7.22;;;3.47;;
26598;SDS011;14240;51.064;16.612;2023-09-07T10:23:23;6.55;;;4.25;;
26598;SDS011;14240;51.064;16.612;2023-09-07T10:26:02;6.07;;;3.90;;
26598;SDS011;14240;51.064;16.612;2023-09-07T10:28:29;8.88;;;4.72;;
26598;SDS011;14240;51.064;16.612;2023-09-07T10:30:59;5.65;;;3.22;;
26598;SDS011;14240;51.064;16.612;2023-09-07T10:33:38;4.47;;;3.15;;
26598;SDS011;14240;51.064;16.612;2023-09-07T10:36:04;10.20;;;4.22;;
26598;SDS011;14240;51.064;16.612;2023-09-07T10:38:34;6.80;;;3.78;;
26598;SDS011;14240;51.064;16.612;2023-09-07T10:41:01;13.90;;;4.57;;
26598;SDS011;14240;51.064;16.612;2023-09-07T10:43:29;5.72;;;3.20;;
26598;SDS011;14240;51.064;16.612;2023-09-07T10:45:57;7.20;;;3.33;;
26598;SDS011;14240;51.064;16.612;2023-09-07T10:48:24;6.95;;;3.35;;
26598;SDS011;14240;51.064;16.612;2023-09-07T10:50:50;6.72;;;4.15;;
26598;SDS011;14240;51.064;16.612;2023-09-07T10:55:53;5.75;;;3.47;;
26598;SDS011;14240;51.064;16.612;2023-09-07T11:01:16;6.68;;;2.90;;
26598;SDS011;14240;51.064;16.612;2023-09-07T11:03:41;6.43;;;3.95;;
26598;SDS011;14240;51.064;16.612;2023-09-07T11:06:11;9.63;;;3.47;;
26598;SDS011;14240;51.064;16.612;2023-09-07T11:08:44;5.82;;;3.10;;
26598;SDS011;14240;51.064;16.612;2023-09-07T11:11:12;5.07;;;2.83;;
26598;SDS011;14240;51.064;16.612;2023-09-07T11:13:39;5.78;;;3.53;;
26598;SDS011;14240;51.064;16.612;2023-09-07T11:16:07;4.68;;;3.20;;
26598;SDS011;14240;51.064;16.612;2023-09-07T11:18:34;4.28;;;2.50;;
26598;SDS011;14240;51.064;16.612;2023-09-07T11:21:02;7.60;;;4.22;;
26598;SDS011;14240;51.064;16.612;2023-09-07T11:23:32;4.30;;;2.85;;
26598;SDS011;14240;51.064;16.612;2023-09-07T11:26:09;6.18;;;3.03;;
26598;SDS011;14240;51.064;16.612;2023-09-07T11:28:35;6.50;;;3.53;;
26598;SDS011;14240;51.064;16.612;2023-09-07T11:31:02;5.90;;;3.40;;
26598;SDS011;14240;51.064;16.612;2023-09-07T11:33:31;5.60;;;3.13;;
26598;SDS011;14240;51.064;16.612;2023-09-07T11:35:57;4.35;;;3.70;;
26598;SDS011;14240;51.064;16.612;2023-09-07T11:38:23;4.47;;;2.90;;
26598;SDS011;14240;51.064;16.612;2023-09-07T11:40:53;5.10;;;3.17;;
26598;SDS011;14240;51.064;16.612;2023-09-07T11:43:18;5.85;;;3.47;;
26598;SDS011;14240;51.064;16.612;2023-09-07T11:45:45;12.05;;;3.65;;
26598;SDS011;14240;51.064;16.612;2023-09-07T11:48:11;7.07;;;3.92;;
26598;SDS011;14240;51.064;16.612;2023-09-07T11:50:37;7.07;;;4.20;;
26598;SDS011;14240;51.064;16.612;2023-09-07T11:53:05;6.25;;;3.70;;
26598;SDS011;14240;51.064;16.612;2023-09-07T11:55:32;6.13;;;4.00;;
26598;SDS011;14240;51.064;16.612;2023-09-07T11:57:59;6.03;;;2.85;;
26598;SDS011;14240;51.064;16.612;2023-09-07T12:00:25;8.35;;;3.72;;
26598;SDS011;14240;51.064;16.612;2023-09-07T12:02:51;3.90;;;3.33;;
26598;SDS011;14240;51.064;16.612;2023-09-07T12:05:17;5.07;;;3.03;;
26598;SDS011;14240;51.064;16.612;2023-09-07T12:07:44;7.75;;;3.33;;
26598;SDS011;14240;51.064;16.612;2023-09-07T12:10:10;7.53;;;4.13;;
26598;SDS011;14240;51.064;16.612;2023-09-07T12:12:38;5.65;;;3.55;;
26598;SDS011;14240;51.064;16.612;2023-09-07T12:15:07;5.65;;;3.00;;
26598;SDS011;14240;51.064;16.612;2023-09-07T12:17:33;3.60;;;2.70;;
26598;SDS011;14240;51.064;16.612;2023-09-07T12:20:00;2.60;;;2.13;;
26598;SDS011;14240;51.064;16.612;2023-09-07T12:22:26;6.65;;;3.22;;
26598;SDS011;14240;51.064;16.612;2023-09-07T12:24:52;4.47;;;3.70;;
26598;SDS011;14240;51.064;16.612;2023-09-07T12:27:18;5.97;;;3.38;;
26598;SDS011;14240;51.064;16.612;2023-09-07T12:29:44;10.70;;;3.65;;
26598;SDS011;14240;51.064;16.612;2023-09-07T12:32:10;2.80;;;2.38;;
26598;SDS011;14240;51.064;16.612;2023-09-07T12:34:36;5.93;;;3.40;;
26598;SDS011;14240;51.064;16.612;2023-09-07T12:37:02;5.55;;;3.22;;
26598;SDS011;14240;51.064;16.612;2023-09-07T12:39:30;7.80;;;4.53;;
26598;SDS011;14240;51.064;16.612;2023-09-07T12:41:59;7.10;;;3.88;;
26598;SDS011;14240;51.064;16.612;2023-09-07T12:44:25;5.28;;;3.60;;
26598;SDS011;14240;51.064;16.612;2023-09-07T12:46:50;4.32;;;3.50;;
26598;SDS011;14240;51.064;16.612;2023-09-07T12:49:16;4.72;;;3.20;;
26598;SDS011;14240;51.064;16.612;2023-09-07T12:51:42;8.32;;;3.42;;
26598;SDS011;14240;51.064;16.612;2023-09-07T12:54:07;6.38;;;3.67;;
26598;SDS011;14240;51.064;16.612;2023-09-07T12:56:33;8.63;;;4.32;;
26598;SDS011;14240;51.064;16.612;2023-09-07T12:58:59;6.00;;;3.72;;
26598;SDS011;14240;51.064;16.612;2023-09-07T13:01:25;7.18;;;3.65;;
26598;SDS011;14240;51.064;16.612;2023-09-07T13:03:51;6.55;;;3.38;;
26598;SDS011;14240;51.064;16.612;2023-09-07T13:06:17;5.97;;;3.55;;
26598;SDS011;14240;51.064;16.612;2023-09-07T13:08:46;5.57;;;3.88;;
26598;SDS011;14240;51.064;16.612;2023-09-07T13:11:11;8.43;;;2.88;;
26598;SDS011;14240;51.064;16.612;2023-09-07T13:13:37;6.18;;;3.08;;
26598;SDS011;14240;51.064;16.612;2023-09-07T13:16:03;5.60;;;3.00;;
26598;SDS011;14240;51.064;16.612;2023-09-07T13:18:29;4.57;;;3.20;;
26598;SDS011;14240;51.064;16.612;2023-09-07T13:20:55;3.72;;;3.42;;
26598;SDS011;14240;51.064;16.612;2023-09-07T13:23:27;3.65;;;2.80;;
26598;SDS011;14240;51.064;16.612;2023-09-07T13:25:56;8.02;;;3.72;;
26598;SDS011;14240;51.064;16.612;2023-09-07T13:28:22;4.45;;;3.08;;
26598;SDS011;14240;51.064;16.612;2023-09-07T13:30:50;5.65;;;2.67;;
26598;SDS011;14240;51.064;16.612;2023-09-07T13:33:16;4.57;;;3.38;;
26598;SDS011;14240;51.064;16.612;2023-09-07T13:35:41;3.50;;;2.58;;
26598;SDS011;14240;51.064;16.612;2023-09-07T13:38:07;4.03;;;2.75;;
26598;SDS011;14240;51.064;16.612;2023-09-07T13:40:33;9.18;;;3.30;;
26598;SDS011;14240;51.064;16.612;2023-09-07T13:42:58;4.43;;;3.65;;
26598;SDS011;14240;51.064;16.612;2023-09-07T13:45:24;8.25;;;3.25;;
26598;SDS011;14240;51.064;16.612;2023-09-07T13:47:49;8.50;;;3.58;;
26598;SDS011;14240;51.064;16.612;2023-09-07T13:50:15;6.40;;;3.22;;
26598;SDS011;14240;51.064;16.612;2023-09-07T13:52:41;4.95;;;2.92;;
26598;SDS011;14240;51.064;16.612;2023-09-07T13:55:07;6.07;;;3.45;;
26598;SDS011;14240;51.064;16.612;2023-09-07T13:57:33;8.55;;;3.35;;
26598;SDS011;14240;51.064;16.612;2023-09-07T13:59:59;6.22;;;3.88;;
26598;SDS011;14240;51.064;16.612;2023-09-07T14:02:25;6.88;;;3.63;;
26598;SDS011;14240;51.064;16.612;2023-09-07T14:04:51;5.20;;;3.25;;
26598;SDS011;14240;51.064;16.612;2023-09-07T14:07:17;5.80;;;2.45;;
26598;SDS011;14240;51.064;16.612;2023-09-07T14:09:43;3.28;;;2.63;;
26598;SDS011;14240;51.064;16.612;2023-09-07T14:12:09;4.95;;;2.83;;
26598;SDS011;14240;51.064;16.612;2023-09-07T14:14:35;5.68;;;2.97;;
26598;SDS011;14240;51.064;16.612;2023-09-07T14:17:01;4.97;;;3.08;;
26598;SDS011;14240;51.064;16.612;2023-09-07T14:19:27;4.82;;;3.08;;
26598;SDS011;14240;51.064;16.612;2023-09-07T14:21:56;5.35;;;2.67;;
26598;SDS011;14240;51.064;16.612;2023-09-07T14:24:23;7.50;;;3.55;;
26598;SDS011;14240;51.064;16.612;2023-09-07T14:26:49;5.03;;;2.80;;
26598;SDS011;14240;51.064;16.612;2023-09-07T14:29:15;9.20;;;2.63;;
26598;SDS011;14240;51.064;16.612;2023-09-07T14:31:40;5.95;;;2.97;;
26598;SDS011;14240;51.064;16.612;2023-09-07T14:34:08;4.90;;;2.97;;
26598;SDS011;14240;51.064;16.612;2023-09-07T14:36:34;4.20;;;2.85;;